Time;durP1;ratioP1;P1;durP2;ratioP2;P2;SDS_P1;SDS_P2;PMS_P1;PMS_P2;Temp;Humidity;BMP_temperature;BMP_pressure;BME280_temperature;BME280_humidity;BME280_pressure;Samples;Min_cycle;Max_cycle;Signal;HPM_P1;HPM_P2
2022/10/30 00:01:23;;;;;;;19.55;13.38;;;13.20;99.90;;;;;;5028548;28;20036;-78
2022/10/30 00:03:48;;;;;;;16.90;13.00;;;13.20;99.90;;;;;;5025931;28;20222;-78
2022/10/30 00:06:14;;;;;;;18.10;12.07;;;13.20;99.90;;;;;;5029966;28;20036;-79
2022/10/30 00:08:39;;;;;;;13.75;10.80;;;13.20;99.90;;;;;;5033493;28;20040;-79
2022/10/30 00:11:10;;;;;;;15.20;11.38;;;13.30;99.90;;;;;;5029178;28;20483;-80
2022/10/30 00:13:37;;;;;;;16.13;11.77;;;13.30;99.90;;;;;;5027818;28;20117;-81
2022/10/30 00:16:05;;;;;;;15.18;11.35;;;13.30;99.90;;;;;;5026724;28;20080;-80
2022/10/30 00:18:31;;;;;;;16.65;11.98;;;13.30;99.90;;;;;;5029347;28;20449;-83
2022/10/30 00:20:56;;;;;;;14.85;11.73;;;13.30;99.90;;;;;;5033669;28;20433;-82
2022/10/30 00:23:22;;;;;;;17.73;12.23;;;13.30;99.90;;;;;;5031525;28;20025;-82
2022/10/30 00:25:48;;;;;;;14.50;11.70;;;13.30;99.90;;;;;;5031363;28;20112;-82
2022/10/30 00:28:13;;;;;;;14.40;11.43;;;13.30;99.90;;;;;;5031169;28;20056;-80
2022/10/30 00:30:39;;;;;;;14.95;11.80;;;13.30;99.90;;;;;;5027077;28;20028;-82
2022/10/30 00:33:05;;;;;;;15.43;11.70;;;13.30;99.90;;;;;;5028538;28;20029;-83
2022/10/30 00:35:31;;;;;;;16.40;12.50;;;13.30;99.90;;;;;;5028774;28;20025;-83
2022/10/30 00:37:56;;;;;;;15.07;11.35;;;13.30;99.90;;;;;;5032699;28;20029;-81
2022/10/30 00:40:22;;;;;;;15.07;11.13;;;13.30;99.90;;;;;;5030125;28;20037;-81
2022/10/30 00:42:48;;;;;;;16.23;11.82;;;13.30;99.90;;;;;;5029746;28;20033;-82
2022/10/30 00:45:16;;;;;;;18.33;11.02;;;13.30;99.90;;;;;;5029288;28;20512;-73
2022/10/30 00:47:58;;;;;;;15.57;10.73;;;13.30;99.90;;;;;;5027848;28;20056;-73
2022/10/30 00:50:26;;;;;;;;;;;13.30;99.90;;;;;;5028037;28;20108;-76
2022/10/30 00:53:00;;;;;;;15.43;11.23;;;13.40;99.90;;;;;;5031886;28;20350;-75
2022/10/30 00:55:33;;;;;;;12.95;10.30;;;13.30;99.90;;;;;;5030068;28;20040;-74
2022/10/30 00:58:02;;;;;;;16.08;12.38;;;13.30;99.90;;;;;;5030871;28;20021;-76
2022/10/30 01:00:29;;;;;;;14.52;11.43;;;13.20;99.90;;;;;;5027646;28;20834;-76
2022/10/30 01:02:56;;;;;;;15.23;11.05;;;13.30;99.90;;;;;;5026300;28;20083;-76
2022/10/30 01:05:23;;;;;;;16.33;11.45;;;13.20;99.90;;;;;;5031141;28;20032;-75
2022/10/30 01:07:49;;;;;;;16.05;12.77;;;13.30;99.90;;;;;;5029741;28;20115;-75
2022/10/30 01:10:15;;;;;;;15.32;11.95;;;13.30;99.90;;;;;;5032270;28;20100;-75
2022/10/30 01:12:42;;;;;;;14.00;10.27;;;13.20;99.90;;;;;;5029296;28;20025;-75
2022/10/30 01:15:09;;;;;;;14.20;9.85;;;13.20;99.90;;;;;;5026025;28;20045;-75
2022/10/30 01:17:46;;;;;;;12.55;10.02;;;13.20;99.90;;;;;;5027086;28;20025;-75
2022/10/30 01:20:18;;;;;;;14.93;10.90;;;13.20;99.90;;;;;;5028574;28;20141;-75
2022/10/30 01:23:08;;;;;;;16.85;11.70;;;13.20;99.90;;;;;;5030849;28;20055;-75
2022/10/30 01:25:58;;;;;;;14.80;11.55;;;13.20;99.90;;;;;;5031088;28;20766;-75
2022/10/30 01:28:45;;;;;;;15.93;11.80;;;13.20;99.90;;;;;;5028400;28;20448;-75
2022/10/30 01:31:45;;;;;;;15.65;11.50;;;13.30;99.90;;;;;;5026247;28;20025;-75
2022/10/30 01:34:40;;;;;;;12.93;10.55;;;13.30;99.90;;;;;;5030422;28;20026;-76
2022/10/30 01:37:14;;;;;;;13.05;10.63;;;13.30;99.90;;;;;;5027195;28;20080;-75
2022/10/30 01:39:40;;;;;;;14.68;10.75;;;13.30;99.90;;;;;;5031582;28;20025;-76
2022/10/30 01:42:30;;;;;;;14.93;10.63;;;13.20;99.90;;;;;;5030632;28;20084;-76
2022/10/30 01:44:56;;;;;;;15.50;11.27;;;13.30;99.90;;;;;;5025627;28;20040;-75
2022/10/30 01:47:40;;;;;;;14.45;11.02;;;13.30;99.90;;;;;;5028833;28;20041;-75
2022/10/30 01:50:34;;;;;;;13.15;10.50;;;13.30;99.90;;;;;;5030521;28;20031;-75
2022/10/30 01:53:24;;;;;;;14.23;11.23;;;13.30;99.90;;;;;;5025824;28;20497;-75
2022/10/30 01:56:08;;;;;;;15.25;10.80;;;13.20;99.90;;;;;;5030135;28;20477;-75
2022/10/30 01:59:04;;;;;;;16.27;12.30;;;13.30;99.90;;;;;;5025473;28;20500;-75
2022/10/30 02:01:32;;;;;;;14.60;11.57;;;13.40;99.90;;;;;;5029849;28;20489;-75
2022/10/30 02:03:58;;;;;;;16.02;12.00;;;13.30;99.90;;;;;;5029815;28;20024;-75
2022/10/30 02:06:24;;;;;;;18.67;12.73;;;13.40;99.90;;;;;;5028822;28;20119;-75
2022/10/30 02:08:50;;;;;;;19.77;14.23;;;13.30;99.90;;;;;;5029885;28;20042;-75
2022/10/30 02:11:16;;;;;;;21.63;14.45;;;13.30;99.90;;;;;;5034301;28;20106;-75
2022/10/30 02:13:42;;;;;;;20.70;13.55;;;13.20;99.90;;;;;;5029081;28;20029;-75
2022/10/30 02:16:09;;;;;;;19.33;13.95;;;13.20;99.90;;;;;;5014978;28;20056;-75
2022/10/30 02:18:34;;;;;;;25.13;14.88;;;13.30;99.90;;;;;;5031211;28;20079;-75
2022/10/30 02:21:01;;;;;;;23.20;14.88;;;13.30;99.90;;;;;;5028824;28;20443;-75
2022/10/30 02:23:26;;;;;;;19.83;15.40;;;13.30;99.90;;;;;;5033265;28;20047;-76
2022/10/30 02:25:52;;;;;;;23.38;14.73;;;13.30;99.90;;;;;;5029327;28;20525;-76
2022/10/30 02:28:17;;;;;;;20.75;15.23;;;13.30;99.90;;;;;;5028863;28;20060;-76
2022/10/30 02:30:43;;;;;;;22.17;15.57;;;13.30;99.90;;;;;;5009324;28;20044;-75
2022/10/30 02:33:09;;;;;;;21.23;15.18;;;13.30;99.90;;;;;;5025684;28;20036;-75
2022/10/30 02:35:35;;;;;;;26.60;15.70;;;13.30;99.90;;;;;;5032562;28;20021;-76
2022/10/30 02:38:01;;;;;;;21.67;14.77;;;13.30;99.90;;;;;;5034456;28;20040;-76
2022/10/30 02:40:27;;;;;;;23.15;15.80;;;13.20;99.90;;;;;;5028576;28;20032;-76
2022/10/30 02:42:53;;;;;;;22.02;15.73;;;13.20;99.90;;;;;;5030841;28;20385;-75
2022/10/30 02:45:19;;;;;;;21.08;14.07;;;13.30;99.90;;;;;;5023133;28;20037;-75
2022/10/30 02:47:45;;;;;;;22.70;14.35;;;13.20;99.90;;;;;;5029305;28;20796;-75
2022/10/30 02:50:10;;;;;;;21.15;15.40;;;13.30;99.90;;;;;;5031253;28;20022;-75
2022/10/30 02:52:36;;;;;;;18.55;13.65;;;13.20;99.90;;;;;;5024955;28;20033;-74
2022/10/30 02:55:02;;;;;;;21.52;13.05;;;13.20;99.90;;;;;;5028106;28;20029;-75
2022/10/30 02:57:28;;;;;;;19.30;13.43;;;13.20;99.90;;;;;;5026741;28;20033;-74
2022/10/30 02:59:53;;;;;;;19.48;14.07;;;13.30;99.90;;;;;;5027533;28;20029;-75
2022/10/30 03:02:19;;;;;;;16.73;13.20;;;13.30;99.90;;;;;;5027486;28;20029;-76
2022/10/30 03:04:44;;;;;;;19.23;12.98;;;13.30;99.90;;;;;;5029922;28;20039;-77
2022/10/30 03:07:10;;;;;;;18.33;13.23;;;13.30;99.90;;;;;;5028197;28;20069;-75
2022/10/30 03:09:35;;;;;;;15.98;12.63;;;13.30;99.90;;;;;;5027134;28;20714;-76
2022/10/30 03:12:01;;;;;;;16.48;12.55;;;13.20;99.90;;;;;;5028419;28;20041;-76
2022/10/30 03:14:27;;;;;;;17.33;13.68;;;13.20;99.90;;;;;;5026787;28;20034;-75
2022/10/30 03:16:52;;;;;;;21.48;13.20;;;13.20;99.90;;;;;;5029898;28;20047;-75
2022/10/30 03:19:18;;;;;;;17.17;12.98;;;13.10;99.90;;;;;;5022894;28;20440;-75
2022/10/30 03:21:44;;;;;;;18.05;12.23;;;13.10;99.90;;;;;;5026090;28;20612;-75
2022/10/30 03:24:09;;;;;;;16.35;12.23;;;13.10;99.90;;;;;;5025699;28;20025;-75
2022/10/30 03:26:35;;;;;;;16.42;12.68;;;13.10;99.90;;;;;;5030846;28;20040;-75
2022/10/30 03:29:00;;;;;;;17.65;12.35;;;13.10;99.90;;;;;;5023248;28;20043;-75
2022/10/30 03:31:26;;;;;;;16.17;12.63;;;13.10;99.90;;;;;;5025639;28;20064;-75
2022/10/30 03:33:52;;;;;;;19.25;13.77;;;13.10;99.90;;;;;;5012000;28;20787;-75
2022/10/30 03:36:17;;;;;;;20.17;13.45;;;13.20;99.90;;;;;;5028854;28;20026;-76
2022/10/30 03:38:43;;;;;;;16.48;13.13;;;13.20;99.90;;;;;;5027093;28;20033;-76
2022/10/30 03:41:09;;;;;;;19.48;13.07;;;13.20;99.90;;;;;;5033932;28;20013;-75
2022/10/30 03:43:34;;;;;;;19.42;12.43;;;13.20;99.90;;;;;;5031068;28;20129;-76
2022/10/30 03:46:00;;;;;;;15.38;12.50;;;13.20;99.90;;;;;;5013951;28;20041;-75
2022/10/30 03:48:28;;;;;;;17.30;13.10;;;13.20;99.90;;;;;;5029983;28;20033;-75
2022/10/30 03:50:55;;;;;;;17.30;12.68;;;13.20;99.90;;;;;;5030501;28;20017;-76
2022/10/30 03:53:22;;;;;;;17.13;12.85;;;13.20;99.90;;;;;;5027208;28;20044;-75
2022/10/30 03:55:51;;;;;;;19.23;13.43;;;13.20;99.90;;;;;;5035114;28;20231;-75
2022/10/30 03:58:17;;;;;;;15.65;12.23;;;13.20;99.90;;;;;;5031079;28;20029;-76
2022/10/30 04:00:42;;;;;;;14.02;11.25;;;13.20;99.90;;;;;;5025875;28;20079;-76
2022/10/30 04:03:09;;;;;;;15.32;12.27;;;13.30;99.90;;;;;;5028191;28;20438;-76
2022/10/30 04:05:36;;;;;;;14.73;11.25;;;13.30;99.90;;;;;;5033233;28;20032;-76
2022/10/30 04:08:04;;;;;;;15.68;12.18;;;13.30;99.90;;;;;;5029733;28;20033;-76
2022/10/30 04:10:30;;;;;;;15.52;11.55;;;13.30;99.90;;;;;;5013995;28;20486;-76
2022/10/30 04:13:00;;;;;;;15.60;11.52;;;13.30;99.90;;;;;;5030681;28;20079;-76
2022/10/30 04:15:25;;;;;;;12.73;10.65;;;13.20;99.90;;;;;;5016768;28;20029;-76
2022/10/30 04:17:51;;;;;;;14.65;10.60;;;13.20;99.90;;;;;;5026501;28;20328;-74
2022/10/30 04:20:18;;;;;;;12.45;10.15;;;13.20;99.90;;;;;;5031751;28;20041;-74
2022/10/30 04:22:44;;;;;;;13.98;10.60;;;13.20;99.90;;;;;;5030801;28;20064;-73
2022/10/30 04:25:09;;;;;;;13.48;11.25;;;13.20;99.90;;;;;;5031455;28;20034;-74
2022/10/30 04:27:42;;;;;;;11.98;9.93;;;13.20;99.90;;;;;;5019570;28;20074;-74
2022/10/30 04:30:10;;;;;;;13.05;10.43;;;13.10;99.90;;;;;;5027442;28;20036;-73
2022/10/30 04:32:36;;;;;;;13.27;10.90;;;13.10;99.90;;;;;;5029243;28;20053;-74
2022/10/30 04:35:03;;;;;;;14.45;10.52;;;13.10;99.90;;;;;;5033471;28;20068;-74
2022/10/30 04:37:29;;;;;;;12.60;10.63;;;13.10;99.90;;;;;;5028380;28;20033;-73
2022/10/30 04:39:54;;;;;;;13.93;10.57;;;13.20;99.90;;;;;;5033266;28;20025;-74
2022/10/30 04:42:20;;;;;;;13.95;10.55;;;13.10;99.90;;;;;;5026029;28;20026;-74
2022/10/30 04:44:45;;;;;;;14.38;10.57;;;13.10;99.90;;;;;;5030334;28;20041;-75
2022/10/30 04:47:11;;;;;;;13.13;11.05;;;13.10;99.90;;;;;;5033031;28;20040;-74
2022/10/30 04:49:36;;;;;;;12.23;10.00;;;13.10;99.90;;;;;;5028146;28;20044;-74
2022/10/30 04:52:02;;;;;;;12.38;9.98;;;13.10;99.90;;;;;;5030600;28;20044;-74
2022/10/30 04:54:28;;;;;;;13.80;10.68;;;13.10;99.90;;;;;;5029280;28;20108;-76
2022/10/30 04:56:53;;;;;;;13.77;10.57;;;13.10;99.90;;;;;;5029334;28;20029;-74
2022/10/30 04:59:19;;;;;;;16.77;11.30;;;13.10;99.90;;;;;;5033960;28;20123;-74
2022/10/30 05:01:44;;;;;;;13.85;10.95;;;13.10;99.90;;;;;;5029713;28;20036;-74
2022/10/30 05:04:10;;;;;;;13.45;10.10;;;13.10;99.90;;;;;;5014778;28;20025;-73
2022/10/30 05:06:35;;;;;;;14.75;11.20;;;13.10;99.90;;;;;;5030482;28;20029;-74
2022/10/30 05:09:01;;;;;;;16.77;11.77;;;13.10;99.90;;;;;;5030085;28;20082;-74
2022/10/30 05:11:27;;;;;;;14.63;10.65;;;13.00;99.90;;;;;;5029125;28;20041;-74
2022/10/30 05:13:52;;;;;;;13.73;10.68;;;13.00;99.90;;;;;;5027421;28;20033;-74
2022/10/30 05:16:18;;;;;;;16.50;11.70;;;13.00;99.90;;;;;;5030330;28;20497;-74
2022/10/30 05:18:43;;;;;;;14.27;10.75;;;13.00;99.90;;;;;;5028932;28;20494;-74
2022/10/30 05:21:09;;;;;;;11.82;9.70;;;12.90;99.90;;;;;;5030177;28;20048;-74
2022/10/30 05:23:35;;;;;;;14.05;10.32;;;12.90;99.90;;;;;;5030035;28;20084;-74
2022/10/30 05:26:00;;;;;;;12.60;9.60;;;12.90;99.90;;;;;;5028552;28;20060;-74
2022/10/30 05:28:26;;;;;;;12.60;9.90;;;12.90;99.90;;;;;;5027342;28;20042;-74
2022/10/30 05:30:52;;;;;;;13.10;9.88;;;12.90;99.90;;;;;;5029376;28;20586;-75
2022/10/30 05:33:18;;;;;;;17.23;10.93;;;12.90;99.90;;;;;;5014027;28;20029;-75
2022/10/30 05:35:44;;;;;;;14.45;10.35;;;12.90;99.90;;;;;;5032368;28;20106;-74
2022/10/30 05:38:13;;;;;;;14.23;10.57;;;13.00;99.90;;;;;;5027548;28;20030;-74
2022/10/30 05:40:38;;;;;;;13.10;9.50;;;13.00;99.90;;;;;;5011656;28;20040;-74
2022/10/30 05:43:05;;;;;;;12.55;9.55;;;12.90;99.90;;;;;;5027165;28;20025;-74
2022/10/30 05:45:30;;;;;;;13.93;10.48;;;13.00;99.90;;;;;;5029168;28;20033;-73
2022/10/30 05:48:02;;;;;;;15.88;11.50;;;12.90;99.90;;;;;;5013159;28;20047;-74
2022/10/30 05:50:28;;;;;;;13.97;11.10;;;12.90;99.90;;;;;;5029788;28;20037;-74
2022/10/30 05:53:02;;;;;;;16.75;11.68;;;12.90;99.90;;;;;;5031755;28;20391;-74
2022/10/30 05:55:28;;;;;;;13.00;10.77;;;12.80;99.90;;;;;;5029823;28;20033;-74
2022/10/30 05:57:59;;;;;;;14.13;10.63;;;12.80;99.90;;;;;;5029165;28;20117;-74
2022/10/30 06:00:26;;;;;;;14.32;10.65;;;12.70;99.90;;;;;;5026506;28;20064;-74
2022/10/30 06:02:57;;;;;;;12.93;10.10;;;12.70;99.90;;;;;;5027134;28;20024;-73
2022/10/30 06:05:23;;;;;;;13.15;9.60;;;12.70;99.90;;;;;;5029148;28;20060;-74
2022/10/30 06:07:48;;;;;;;14.50;9.85;;;12.60;99.90;;;;;;5031228;28;20069;-74
2022/10/30 06:10:14;;;;;;;10.98;9.32;;;12.70;99.90;;;;;;5031115;28;21044;-73
2022/10/30 06:12:39;;;;;;;11.63;8.90;;;12.70;99.90;;;;;;5026358;28;20577;-74
2022/10/30 06:15:05;;;;;;;12.07;9.38;;;12.60;99.90;;;;;;5026054;28;20061;-74
2022/10/30 06:17:31;;;;;;;9.88;8.52;;;12.60;99.90;;;;;;5026966;28;20820;-75
2022/10/30 06:19:56;;;;;;;10.60;7.72;;;12.50;99.90;;;;;;5028618;28;20025;-75
2022/10/30 06:22:22;;;;;;;11.82;8.98;;;12.60;99.90;;;;;;5028439;28;20560;-74
2022/10/30 06:24:48;;;;;;;9.98;8.18;;;12.50;99.90;;;;;;5010485;28;20029;-74
2022/10/30 06:27:13;;;;;;;10.48;8.77;;;12.50;99.90;;;;;;5029367;28;20051;-74
2022/10/30 06:29:39;;;;;;;12.43;9.27;;;12.60;99.90;;;;;;5028360;28;20041;-74
2022/10/30 06:32:04;;;;;;;12.35;8.68;;;12.60;99.90;;;;;;5026520;28;20104;-74
2022/10/30 06:34:30;;;;;;;11.15;8.57;;;12.70;99.90;;;;;;5028442;28;20028;-74
2022/10/30 06:36:55;;;;;;;13.93;9.52;;;12.70;99.90;;;;;;5027952;28;20584;-74
2022/10/30 06:39:21;;;;;;;10.65;8.15;;;12.70;99.90;;;;;;5034277;28;20527;-74
2022/10/30 06:41:46;;;;;;;12.15;8.60;;;12.80;99.90;;;;;;5030190;28;20991;-74
2022/10/30 06:44:13;;;;;;;12.18;8.45;;;12.80;99.90;;;;;;5029100;28;20026;-75
2022/10/30 06:46:38;;;;;;;12.00;8.88;;;12.70;99.90;;;;;;5027879;28;20024;-73
2022/10/30 06:49:04;;;;;;;11.77;9.20;;;12.80;99.90;;;;;;5031869;28;20052;-74
2022/10/30 06:51:30;;;;;;;13.40;9.20;;;12.80;99.90;;;;;;5027197;28;20130;-73
2022/10/30 06:53:56;;;;;;;13.65;9.27;;;12.80;99.90;;;;;;5030128;28;20071;-73
2022/10/30 06:56:21;;;;;;;15.38;10.13;;;12.80;99.90;;;;;;5023362;28;20056;-73
2022/10/30 06:58:47;;;;;;;12.93;9.85;;;12.80;99.90;;;;;;5030146;28;20033;-74
2022/10/30 07:01:12;;;;;;;11.05;9.32;;;12.90;99.90;;;;;;5026842;28;20037;-74
2022/10/30 07:03:38;;;;;;;13.77;11.05;;;12.90;99.90;;;;;;5025763;28;20048;-74
2022/10/30 07:06:04;;;;;;;14.52;10.00;;;12.90;99.90;;;;;;5028226;28;20136;-73
2022/10/30 07:08:29;;;;;;;14.48;10.60;;;12.90;99.90;;;;;;5027890;28;20034;-73
2022/10/30 07:10:57;;;;;;;13.52;10.50;;;12.90;99.90;;;;;;5010464;28;20040;-76
2022/10/30 07:13:23;;;;;;;13.73;10.05;;;13.00;99.90;;;;;;5027377;28;20033;-76
2022/10/30 07:15:48;;;;;;;14.10;10.20;;;13.00;99.90;;;;;;5025251;28;20053;-76
2022/10/30 07:18:14;;;;;;;12.65;10.35;;;13.00;99.90;;;;;;5024142;28;20038;-79
2022/10/30 07:20:39;;;;;;;14.27;9.60;;;13.00;99.90;;;;;;5018780;28;20068;-78
2022/10/30 07:23:05;;;;;;;12.52;9.77;;;13.00;99.90;;;;;;5021463;28;20486;-78
2022/10/30 07:25:31;;;;;;;12.93;9.52;;;13.00;99.90;;;;;;5026037;28;20087;-78
2022/10/30 07:27:56;;;;;;;12.20;9.73;;;12.90;99.90;;;;;;5024420;28;20041;-77
2022/10/30 07:30:25;;;;;;;13.25;9.75;;;12.90;99.90;;;;;;5024661;28;20026;-73
2022/10/30 07:33:01;;;;;;;12.95;11.00;;;12.90;99.90;;;;;;5019098;28;20034;-73
2022/10/30 07:35:28;;;;;;;12.95;10.15;;;12.90;99.90;;;;;;5026153;28;20033;-74
2022/10/30 07:37:53;;;;;;;12.50;9.77;;;12.90;99.90;;;;;;5030367;28;20030;-76
2022/10/30 07:40:19;;;;;;;10.88;8.88;;;13.00;99.90;;;;;;5028166;28;20102;-75
2022/10/30 07:42:45;;;;;;;11.35;8.40;;;12.90;99.90;;;;;;5025876;28;20029;-76
2022/10/30 07:45:11;;;;;;;12.15;9.35;;;12.90;99.90;;;;;;5027617;28;20037;-75
2022/10/30 07:47:42;;;;;;;11.30;8.57;;;13.00;99.90;;;;;;5024606;28;20037;-76
2022/10/30 07:50:09;;;;;;;11.07;9.25;;;13.00;99.90;;;;;;5031385;28;20091;-76
2022/10/30 07:52:35;;;;;;;11.35;9.02;;;13.00;99.90;;;;;;5028271;28;20026;-76
2022/10/30 07:55:00;;;;;;;11.38;9.48;;;13.00;99.90;;;;;;5027033;28;20726;-76
2022/10/30 07:57:26;;;;;;;15.73;11.98;;;13.10;99.90;;;;;;5029107;28;20482;-77
2022/10/30 07:59:52;;;;;;;15.90;10.82;;;13.10;99.90;;;;;;5025782;28;20044;-76
2022/10/30 08:02:17;;;;;;;12.02;10.27;;;13.20;99.90;;;;;;5024769;28;20025;-65
2022/10/30 08:04:43;;;;;;;9.60;8.23;;;13.20;99.90;;;;;;5023753;28;20457;-77
2022/10/30 08:07:08;;;;;;;10.57;8.48;;;13.30;99.90;;;;;;5027176;28;20095;-81
2022/10/30 08:09:34;;;;;;;10.68;8.50;;;13.30;99.90;;;;;;5026501;28;20035;-76
2022/10/30 08:11:59;;;;;;;10.10;8.52;;;13.30;99.90;;;;;;5005933;28;20021;-82
2022/10/30 08:14:25;;;;;;;10.93;8.55;;;13.30;99.90;;;;;;5025585;28;20060;-82
2022/10/30 08:16:51;;;;;;;11.13;8.88;;;13.30;99.90;;;;;;5027415;28;20401;-81
2022/10/30 08:19:16;;;;;;;10.25;8.45;;;13.30;99.90;;;;;;5031009;28;20490;-80
2022/10/30 08:21:42;;;;;;;12.20;8.73;;;13.40;99.90;;;;;;5022575;28;20032;-83
2022/10/30 08:24:08;;;;;;;11.68;8.98;;;13.30;99.90;;;;;;5018035;28;20046;-80
2022/10/30 08:26:34;;;;;;;11.95;8.48;;;13.30;99.90;;;;;;5033027;28;20048;-81
2022/10/30 08:29:00;;;;;;;11.88;8.90;;;13.40;99.90;;;;;;5029887;28;20052;-82
2022/10/30 08:31:25;;;;;;;12.05;8.75;;;13.40;99.90;;;;;;5028711;28;20061;-82
2022/10/30 08:33:51;;;;;;;10.40;8.05;;;13.40;99.90;;;;;;5028573;28;20573;-77
2022/10/30 08:36:16;;;;;;;11.98;9.82;;;13.30;99.90;;;;;;5030414;28;20526;-76
2022/10/30 08:38:42;;;;;;;13.60;10.55;;;13.30;99.90;;;;;;5030573;28;20631;-78
2022/10/30 08:41:07;;;;;;;11.15;9.13;;;13.20;99.90;;;;;;5032040;28;20025;-77
2022/10/30 08:43:33;;;;;;;15.65;12.30;;;13.30;99.90;;;;;;5033778;28;20043;-76
2022/10/30 08:45:59;;;;;;;16.48;14.00;;;13.30;99.90;;;;;;5032295;28;20195;-77
2022/10/30 08:48:24;;;;;;;12.77;11.20;;;13.40;99.90;;;;;;5031309;28;20039;-77
2022/10/30 08:50:50;;;;;;;13.00;10.93;;;13.40;99.90;;;;;;5031019;28;20112;-76
2022/10/30 08:53:15;;;;;;;9.60;8.50;;;13.50;99.90;;;;;;5027290;28;20036;-77
2022/10/30 08:55:41;;;;;;;10.00;9.00;;;13.50;99.90;;;;;;5006398;28;20504;-77
2022/10/30 08:58:07;;;;;;;10.40;8.70;;;13.50;99.90;;;;;;5028514;28;20033;-77
2022/10/30 09:00:34;;;;;;;10.30;8.52;;;13.60;99.90;;;;;;5025944;28;20030;-76
2022/10/30 09:02:59;;;;;;;10.68;8.23;;;13.50;99.90;;;;;;5025355;28;20195;-76
2022/10/30 09:05:25;;;;;;;18.52;14.25;;;13.50;99.90;;;;;;5010772;28;20116;-77
2022/10/30 09:07:59;;;;;;;12.40;10.77;;;13.50;99.90;;;;;;5032190;28;20524;-78
2022/10/30 09:10:25;;;;;;;13.27;8.73;;;13.50;99.90;;;;;;5030753;28;20549;-67
2022/10/30 09:12:55;;;;;;;10.07;8.65;;;13.50;99.90;;;;;;5013137;28;20564;-78
2022/10/30 09:15:21;;;;;;;9.65;7.93;;;13.60;99.90;;;;;;5028571;28;20041;-77
2022/10/30 09:17:46;;;;;;;11.75;7.90;;;13.60;99.90;;;;;;5028052;28;20091;-77
2022/10/30 09:20:12;;;;;;;9.63;7.90;;;13.50;99.90;;;;;;5026713;28;20032;-77
2022/10/30 09:22:41;;;;;;;10.05;7.97;;;13.50;99.90;;;;;;5026193;28;20517;-79
2022/10/30 09:25:07;;;;;;;12.90;10.25;;;13.50;99.90;;;;;;5022899;28;20167;-75
2022/10/30 09:27:37;;;;;;;9.48;7.10;;;13.50;99.90;;;;;;5026572;28;20025;-76
2022/10/30 09:30:04;;;;;;;12.32;11.02;;;13.60;99.90;;;;;;5024360;28;20038;-76
2022/10/30 09:32:30;;;;;;;6.70;6.00;;;13.60;99.90;;;;;;5024314;28;20399;-75
2022/10/30 09:34:55;;;;;;;11.75;7.47;;;13.60;99.90;;;;;;5027351;28;20029;-76
2022/10/30 09:37:22;;;;;;;54.05;42.55;;;13.60;99.90;;;;;;5029702;28;20068;-76
2022/10/30 09:39:47;;;;;;;15.88;13.60;;;13.60;99.90;;;;;;5024184;28;20112;-76
2022/10/30 09:42:37;;;;;;;54.38;40.78;;;13.70;99.90;;;;;;5025851;28;20605;-78
2022/10/30 09:45:44;;;;;;;17.70;13.90;;;13.70;99.90;;;;;;5027620;28;20551;-78
2022/10/30 09:48:37;;;;;;;18.08;13.55;;;13.70;99.90;;;;;;5029101;28;20524;-78
2022/10/30 09:51:40;;;;;;;12.40;9.55;;;13.80;99.90;;;;;;5011085;28;20048;-78
2022/10/30 09:54:13;;;;;;;;;;;13.80;99.90;;;;;;5028357;28;20136;-78
2022/10/30 09:56:46;;;;;;;13.57;9.75;;;13.90;99.90;;;;;;5029836;28;21965;-77
2022/10/30 09:59:47;;;;;;;12.57;9.63;;;13.90;99.90;;;;;;5025463;28;20029;-78
2022/10/30 10:02:24;;;;;;;13.30;9.82;;;13.90;99.90;;;;;;5031086;28;20029;-78
2022/10/30 10:04:56;;;;;;;11.57;9.43;;;13.90;99.90;;;;;;5029225;28;20021;-78
2022/10/30 10:07:28;;;;;;;10.63;8.90;;;14.00;99.90;;;;;;5029771;28;20032;-77
2022/10/30 10:10:00;;;;;;;12.40;9.05;;;14.00;99.90;;;;;;5026216;28;20367;-78
2022/10/30 10:12:31;;;;;;;12.52;7.80;;;14.00;99.90;;;;;;5030788;28;20191;-78
2022/10/30 10:15:01;;;;;;;13.00;7.97;;;14.00;99.90;;;;;;5016799;28;20021;-78
2022/10/30 10:17:37;;;;;;;10.27;8.73;;;14.10;99.90;;;;;;5025943;28;20542;-77
2022/10/30 10:20:04;;;;;;;10.70;8.15;;;14.10;99.90;;;;;;5027161;28;20021;-77
2022/10/30 10:22:41;;;;;;;9.68;8.32;;;14.10;99.90;;;;;;5028709;28;20117;-77
2022/10/30 10:25:13;;;;;;;10.98;8.70;;;14.10;99.90;;;;;;5027050;28;20767;-77
2022/10/30 10:27:47;;;;;;;12.23;8.00;;;14.10;99.90;;;;;;5026894;28;20098;-76
2022/10/30 10:30:15;;;;;;;11.05;8.00;;;14.10;99.90;;;;;;5031381;28;20040;-76
2022/10/30 10:33:01;;;;;;;12.90;9.25;;;14.10;99.90;;;;;;5028587;28;20030;-76
2022/10/30 10:35:46;;;;;;;10.55;8.82;;;14.10;99.90;;;;;;5024730;28;20022;-76
2022/10/30 10:38:26;;;;;;;10.45;8.70;;;14.20;99.90;;;;;;5028982;28;20030;-76
2022/10/30 10:41:33;;;;;;;11.93;8.25;;;14.20;99.90;;;;;;5028493;28;20029;-75
2022/10/30 10:44:31;;;;;;;13.00;9.15;;;14.30;99.90;;;;;;5027754;28;20838;-76
2022/10/30 10:47:09;;;;;;;10.65;8.85;;;14.30;99.90;;;;;;5023328;28;20056;-75
2022/10/30 10:49:43;;;;;;;12.20;9.40;;;14.30;99.90;;;;;;5028679;28;20033;-75
2022/10/30 10:52:24;;;;;;;11.48;9.05;;;14.30;99.90;;;;;;5028728;28;20109;-76
2022/10/30 10:54:58;;;;;;;12.45;8.52;;;14.30;99.90;;;;;;5026710;28;20040;-75
2022/10/30 10:57:28;;;;;;;11.50;9.85;;;14.30;99.90;;;;;;5012344;28;20042;-75
2022/10/30 11:00:24;;;;;;;10.18;8.50;;;14.30;99.90;;;;;;5024764;28;20064;-75
2022/10/30 11:03:08;;;;;;;20.67;15.07;;;14.40;99.90;;;;;;5026993;28;20052;-74
2022/10/30 11:05:38;;;;;;;13.05;10.00;;;14.40;99.90;;;;;;5012769;28;20025;-76
2022/10/30 11:08:19;;;;;;;13.35;10.50;;;14.50;99.90;;;;;;5027989;28;20033;-76
2022/10/30 11:10:56;;;;;;;13.90;10.25;;;14.50;99.90;;;;;;5023681;28;20021;-74
2022/10/30 11:13:26;;;;;;;12.55;10.15;;;14.50;99.90;;;;;;5025966;28;20034;-75
2022/10/30 11:16:12;;;;;;;20.60;14.25;;;14.60;99.90;;;;;;5017383;28;21023;-74
2022/10/30 11:18:39;;;;;;;15.60;12.85;;;14.60;99.90;;;;;;5025915;28;20033;-82
2022/10/30 11:21:20;;;;;;;17.13;11.13;;;14.60;99.90;;;;;;5029901;28;20506;-84
2022/10/30 11:23:47;;;;;;;16.52;12.57;;;14.60;99.90;;;;;;5026802;28;20465;-84
2022/10/30 11:26:16;;;;;;;14.55;11.65;;;14.60;99.90;;;;;;5012027;28;20026;-87
2022/10/30 11:28:49;;;;;;;21.77;10.57;;;14.60;99.90;;;;;;5029458;28;20175;-83
2022/10/30 11:31:29;;;;;;;11.70;9.60;;;14.60;99.90;;;;;;5021412;28;20032;-81
2022/10/30 11:33:54;;;;;;;15.00;10.50;;;14.60;99.90;;;;;;5031685;28;20033;-81
2022/10/30 11:36:24;;;;;;;13.80;10.60;;;14.70;99.90;;;;;;5029249;28;20037;-81
2022/10/30 11:38:51;;;;;;;17.38;11.57;;;14.70;99.90;;;;;;5023381;28;20034;-82
2022/10/30 11:41:18;;;;;;;16.92;11.32;;;14.80;99.90;;;;;;5029158;28;20379;-81
2022/10/30 11:43:45;;;;;;;14.15;10.38;;;14.80;99.90;;;;;;5024645;28;20087;-81
2022/10/30 11:46:18;;;;;;;13.65;10.50;;;14.80;99.90;;;;;;5026055;28;20029;-81
2022/10/30 11:48:44;;;;;;;16.65;11.23;;;14.60;99.90;;;;;;5024798;28;20072;-84
2022/10/30 11:51:12;;;;;;;15.32;11.13;;;14.70;99.90;;;;;;5005104;28;20061;-86
2022/10/30 11:53:49;;;;;;;15.40;11.20;;;14.70;99.90;;;;;;5023149;28;20055;-78
2022/10/30 11:56:18;;;;;;;15.68;10.95;;;14.70;99.90;;;;;;5019916;28;20038;-76
2022/10/30 11:58:53;;;;;;;14.50;10.65;;;14.70;99.90;;;;;;5027029;28;20045;-77
2022/10/30 12:01:23;;;;;;;20.30;12.18;;;14.70;99.90;;;;;;5029540;28;20048;-77
2022/10/30 12:03:49;;;;;;;17.60;12.07;;;14.70;99.90;;;;;;5028928;28;20021;-77
2022/10/30 12:06:24;;;;;;;14.82;11.18;;;14.60;99.90;;;;;;5031068;28;20029;-77
2022/10/30 12:09:28;;;;;;;18.00;11.90;;;14.70;99.90;;;;;;5028450;28;20041;-76
2022/10/30 12:11:53;;;;;;;18.33;12.95;;;14.70;99.90;;;;;;4938103;28;20073;-77
2022/10/30 12:14:22;;;;;;;21.10;13.73;;;14.80;99.90;;;;;;4934772;29;20492;-76
2022/10/30 12:16:50;;;;;;;22.10;14.23;;;14.80;99.90;;;;;;4977930;28;20568;-75
2022/10/30 12:19:18;;;;;;;19.67;14.65;;;14.80;99.90;;;;;;5030185;28;20882;-76
2022/10/30 12:21:49;;;;;;;18.85;13.25;;;14.80;99.90;;;;;;5032185;28;20033;-77
2022/10/30 12:24:23;;;;;;;22.70;14.52;;;14.80;99.90;;;;;;5028742;28;20065;-76
2022/10/30 12:26:53;;;;;;;19.60;12.95;;;14.90;99.90;;;;;;5032306;28;20033;-76
2022/10/30 12:29:22;;;;;;;16.35;11.63;;;14.90;99.90;;;;;;5025998;28;20181;-76
2022/10/30 12:32:03;;;;;;;17.52;11.93;;;14.90;99.90;;;;;;5011235;28;20025;-76
2022/10/30 12:34:41;;;;;;;16.25;11.30;;;15.00;99.90;;;;;;5030832;28;20498;-78
2022/10/30 12:37:37;;;;;;;15.93;12.43;;;15.00;99.90;;;;;;5013004;28;20114;-80
2022/10/30 12:40:03;;;;;;;15.18;10.52;;;14.90;99.90;;;;;;5030117;28;20099;-79
2022/10/30 12:42:34;;;;;;;17.60;11.57;;;14.90;99.90;;;;;;5023624;28;20701;-78